Time;durP1;ratioP1;P1;durP2;ratioP2;P2;SDS_P1;SDS_P2;PMS_P1;PMS_P2;Temp;Humidity;BMP_temperature;BMP_pressure;BME280_temperature;BME280_humidity;BME280_pressure;Samples;Min_cycle;Max_cycle;Signal;HPM_P1;HPM_P2
2022/09/15 00:01:01;;;;;;;17.70;13.30;;;;;;;15.73;98.27;97055.35;105415;1280;24260;-72
2022/09/15 00:03:39;;;;;;;15.80;12.50;;;;;;;15.73;98.64;97052.60;105417;1280;25241;-72
2022/09/15 00:06:07;;;;;;;14.70;12.30;;;;;;;15.74;98.83;97042.73;105423;1280;22533;-72
2022/09/15 00:08:34;;;;;;;18.80;13.90;;;;;;;15.76;98.65;97044.67;105249;1280;138897;-72
2022/09/15 00:11:10;;;;;;;18.20;14.20;;;;;;;15.77;98.77;97036.41;105417;1280;22539;-72
2022/09/15 00:13:39;;;;;;;16.20;14.40;;;;;;;15.77;98.86;97027.85;105340;1280;139222;-72
2022/09/15 00:16:08;;;;;;;;;;;;;;;15.77;98.92;97018.52;105459;1280;22741;-72
2022/09/15 00:18:36;;;;;;;16.30;14.30;;;;;;;15.74;98.86;97020.38;105359;1280;22661;-72
2022/09/15 00:21:05;;;;;;;17.80;14.20;;;;;;;15.74;99.18;97022.67;105305;1280;138955;-72
2022/09/15 00:23:33;;;;;;;17.60;14.80;;;;;;;15.74;99.30;97019.45;105456;1280;25487;-72
2022/09/15 00:26:00;;;;;;;19.00;14.60;;;;;;;15.76;99.31;97012.61;105224;1280;138885;-72
2022/09/15 00:28:27;;;;;;;17.00;13.80;;;;;;;15.76;99.33;97003.77;105369;1280;22542;-71
2022/09/15 00:30:54;;;;;;;17.70;14.20;;;;;;;15.77;99.45;96995.69;105365;1280;25369;-72
2022/09/15 00:33:21;;;;;;;18.80;13.60;;;;;;;15.76;99.34;96992.55;105275;1279;138919;-72
2022/09/15 00:35:51;;;;;;;19.80;13.30;;;;;;;15.76;99.46;96994.27;105385;1280;24266;-72
2022/09/15 00:38:19;;;;;;;15.80;13.80;;;;;;;15.77;99.56;96993.98;105276;1279;138711;-72
2022/09/15 00:40:55;;;;;;;16.60;12.90;;;;;;;15.77;99.50;96995.51;105400;1280;22624;-72
2022/09/15 00:43:50;;;;;;;16.30;12.80;;;;;;;15.77;99.55;96996.81;104077;1280;1694866;-72
2022/09/15 00:46:25;;;;;;;15.80;13.20;;;;;;;15.77;99.72;96996.21;105382;1280;23942;-72
2022/09/15 00:49:08;;;;;;;16.90;13.20;;;;;;;15.78;99.76;96993.66;105346;1280;22772;-72
2022/09/15 00:51:50;;;;;;;18.60;13.70;;;;;;;15.79;99.65;96987.75;105419;1280;24118;-72
2022/09/15 00:54:29;;;;;;;15.00;13.40;;;;;;;15.80;99.85;96984.83;105357;1280;23931;-72
2022/09/15 00:56:59;;;;;;;15.20;13.60;;;;;;;15.82;99.88;96977.44;105278;1280;139549;-72
2022/09/15 00:59:29;;;;;;;18.30;13.80;;;;;;;15.82;99.78;96974.95;105399;1280;22620;-72
2022/09/15 01:02:03;;;;;;;15.50;13.60;;;;;;;15.83;99.49;96968.55;105309;1280;138837;-72
2022/09/15 01:04:30;;;;;;;17.20;12.70;;;;;;;15.82;99.40;96955.96;105468;1280;22554;-72
2022/09/15 01:07:04;;;;;;;15.80;12.80;;;;;;;15.81;99.31;96952.57;105416;1280;22541;-71
2022/09/15 01:09:44;;;;;;;14.80;13.00;;;;;;;15.81;99.35;96948.69;105376;1280;138637;-71
2022/09/15 01:12:11;;;;;;;18.00;13.40;;;;;;;15.81;99.46;96959.39;105427;1280;24317;-73
2022/09/15 01:14:38;;;;;;;17.70;14.40;;;;;;;15.81;99.82;96961.13;105239;1280;138670;-72
2022/09/15 01:17:14;;;;;;;18.20;13.00;;;;;;;15.82;99.73;96951.61;105433;1279;22547;-72
2022/09/15 01:19:58;;;;;;;17.90;13.00;;;;;;;15.82;99.53;96938.06;105368;1280;139039;-72
2022/09/15 01:22:54;;;;;;;17.00;12.90;;;;;;;15.82;99.69;96936.52;105366;1280;23971;-72
2022/09/15 01:25:27;;;;;;;17.90;13.60;;;;;;;15.84;99.84;96928.35;105250;1280;138963;-72
2022/09/15 01:28:16;;;;;;;16.20;12.50;;;;;;;15.84;99.65;96925.09;105387;1280;22675;-72
2022/09/15 01:30:53;;;;;;;17.90;13.20;;;;;;;15.83;99.53;96937.53;105366;1280;23953;-71
2022/09/15 01:33:32;;;;;;;17.70;13.90;;;;;;;15.83;99.50;96939.14;105327;1280;138664;-71
2022/09/15 01:36:05;;;;;;;;;;;;;;;15.81;99.71;96936.00;105530;1280;22735;-71
2022/09/15 01:39:02;;;;;;;16.70;13.90;;;;;;;15.79;99.57;96931.49;105265;1280;125029;-71
2022/09/15 01:41:39;;;;;;;19.20;14.70;;;;;;;15.78;99.65;96931.54;105536;1280;24236;-71
2022/09/15 01:44:11;;;;;;;16.80;13.70;;;;;;;15.77;99.39;96935.62;105413;1280;139216;-71
2022/09/15 01:46:45;;;;;;;19.80;13.50;;;;;;;15.77;99.80;96934.47;105345;1281;24329;-71
2022/09/15 01:49:24;;;;;;;19.00;13.70;;;;;;;15.77;99.70;96936.73;105254;1281;139114;-71
2022/09/15 01:51:53;;;;;;;15.10;12.70;;;;;;;15.75;99.34;96943.23;105335;1281;22541;-72
2022/09/15 01:54:26;;;;;;;19.70;14.10;;;;;;;15.70;99.35;96950.87;105515;1280;22693;-71
2022/09/15 01:56:52;;;;;;;17.30;13.30;;;;;;;15.65;99.65;96952.69;105302;1280;139471;-71
2022/09/15 01:59:19;;;;;;;18.50;12.60;;;;;;;15.60;99.91;96953.30;105363;1280;25255;-71
2022/09/15 02:01:57;;;;;;;18.30;13.90;;;;;;;15.55;99.99;96954.55;105425;1280;140218;-71
2022/09/15 02:04:31;;;;;;;21.60;15.00;;;;;;;15.51;100.00;96944.19;105434;1280;22553;-71
2022/09/15 02:07:27;;;;;;;23.80;16.90;;;;;;;15.49;100.00;96939.23;105395;1280;25484;-71
2022/09/15 02:10:20;;;;;;;26.90;19.10;;;;;;;15.48;100.00;96936.63;105341;1280;22550;-72
2022/09/15 02:13:00;;;;;;;27.90;19.60;;;;;;;15.51;100.00;96932.43;105377;1280;22550;-71
2022/09/15 02:15:32;;;;;;;26.10;18.80;;;;;;;15.53;100.00;96933.33;105315;1280;138886;-71
2022/09/15 02:18:01;;;;;;;25.90;18.40;;;;;;;15.55;100.00;96936.71;105457;1280;25422;-71
2022/09/15 02:20:58;;;;;;;25.50;18.50;;;;;;;15.56;100.00;96933.55;105375;1279;140285;-71
2022/09/15 02:23:34;;;;;;;24.40;16.60;;;;;;;15.58;100.00;96926.92;105432;1280;24278;-71
2022/09/15 02:26:07;;;;;;;20.90;16.00;;;;;;;15.59;100.00;96919.98;105337;1280;139022;-71
2022/09/15 02:28:37;;;;;;;24.60;17.30;;;;;;;15.60;100.00;96919.89;105418;1280;25313;-71
2022/09/15 02:31:08;;;;;;;19.80;14.60;;;;;;;15.62;100.00;96913.61;105483;1280;22557;-71
2022/09/15 02:33:40;;;;;;;21.00;14.90;;;;;;;15.64;100.00;96909.33;105393;1280;25242;-71
2022/09/15 02:36:09;;;;;;;21.30;15.00;;;;;;;15.65;100.00;96906.93;105447;1281;24308;-71
2022/09/15 02:38:46;;;;;;;22.40;15.40;;;;;;;15.64;100.00;96903.64;106217;1281;139453;-71
2022/09/15 02:41:13;;;;;;;20.50;14.60;;;;;;;15.65;100.00;96899.90;105342;1281;24239;-71
2022/09/15 02:43:45;;;;;;;22.40;15.00;;;;;;;15.66;100.00;96897.20;105259;1280;139090;-71
2022/09/15 02:46:14;;;;;;;21.00;14.80;;;;;;;15.67;100.00;96899.14;105416;1280;25303;-71
2022/09/15 02:48:41;;;;;;;;;;;;;;;15.68;100.00;96897.23;105418;1280;23990;-71
2022/09/15 02:51:08;;;;;;;19.40;14.00;;;;;;;15.68;100.00;96891.81;105280;1279;125310;-71
2022/09/15 02:53:35;;;;;;;20.10;13.90;;;;;;;15.69;100.00;96893.69;105346;1280;25539;-71
2022/09/15 02:56:06;;;;;;;21.30;14.70;;;;;;;15.70;100.00;96891.52;105327;1280;139637;-72
2022/09/15 02:58:33;;;;;;;19.40;13.70;;;;;;;15.70;100.00;96892.30;105334;1281;22583;-71
2022/09/15 03:01:05;;;;;;;16.70;13.50;;;;;;;15.69;100.00;96892.05;105326;1281;22604;-71
2022/09/15 03:03:33;;;;;;;17.30;13.70;;;;;;;15.70;100.00;96894.98;105210;1281;139403;-71
2022/09/15 03:06:15;;;;;;;19.20;14.20;;;;;;;15.70;100.00;96893.98;105396;1280;25656;-71
2022/09/15 03:08:48;;;;;;;18.40;13.20;;;;;;;15.72;100.00;96891.92;105258;1280;139591;-71
2022/09/15 03:11:17;;;;;;;17.20;12.90;;;;;;;15.72;100.00;96887.96;105383;1280;22725;-71
2022/09/15 03:13:45;;;;;;;19.00;14.50;;;;;;;15.73;100.00;96884.37;105278;1280;139080;-71
2022/09/15 03:16:15;;;;;;;17.90;13.70;;;;;;;15.73;100.00;96889.58;105425;1280;22864;-71
2022/09/15 03:18:41;;;;;;;19.50;14.50;;;;;;;15.73;100.00;96890.21;105385;1280;22484;-71
2022/09/15 03:21:12;;;;;;;19.70;14.50;;;;;;;15.74;100.00;96892.96;105279;1280;141733;-71
2022/09/15 03:23:40;;;;;;;19.00;15.10;;;;;;;15.74;100.00;96893.02;105397;1280;23925;-71
2022/09/15 03:26:09;;;;;;;17.70;13.80;;;;;;;15.76;100.00;96889.10;105261;1280;139088;-71
2022/09/15 03:28:38;;;;;;;21.90;15.10;;;;;;;15.76;100.00;96886.56;105418;1280;24385;-71
2022/09/15 03:31:06;;;;;;;21.60;14.80;;;;;;;15.72;100.00;96886.58;105406;1280;25329;-71
2022/09/15 03:33:33;;;;;;;24.60;15.70;;;;;;;15.72;100.00;96885.70;105217;1280;139125;-71
2022/09/15 03:36:01;;;;;;;23.00;15.40;;;;;;;15.72;100.00;96881.05;105372;1280;24284;-71
2022/09/15 03:38:28;;;;;;;21.20;14.60;;;;;;;15.71;100.00;96873.10;105380;1280;139086;-71
2022/09/15 03:40:57;;;;;;;21.20;14.70;;;;;;;15.70;100.00;96867.38;105389;1280;22665;-71
2022/09/15 03:43:25;;;;;;;16.30;13.30;;;;;;;15.69;100.00;96872.73;105464;1280;139128;-71
2022/09/15 03:45:54;;;;;;;19.50;14.40;;;;;;;15.68;100.00;96866.45;105439;1280;25356;-71
2022/09/15 03:48:22;;;;;;;;;;;;;;;15.66;100.00;96865.79;105430;1280;22538;-71
2022/09/15 03:50:49;;;;;;;18.80;14.20;;;;;;;15.63;100.00;96866.19;105297;1280;125162;-71
2022/09/15 03:53:18;;;;;;;20.40;13.50;;;;;;;15.62;100.00;96866.89;105394;1280;22547;-71
2022/09/15 03:55:47;;;;;;;19.60;14.30;;;;;;;15.61;100.00;96865.22;105290;1280;139198;-71
2022/09/15 03:58:17;;;;;;;18.90;13.60;;;;;;;15.61;100.00;96866.31;105450;1280;22733;-71
2022/09/15 04:00:45;;;;;;;20.50;14.80;;;;;;;15.60;100.00;96864.98;105472;1280;24405;-71
2022/09/15 04:03:12;;;;;;;18.20;14.30;;;;;;;15.59;100.00;96863.55;105290;1280;139266;-71
2022/09/15 04:05:39;;;;;;;16.80;13.50;;;;;;;15.59;100.00;96865.66;105370;1280;25447;-71
2022/09/15 04:08:06;;;;;;;16.80;13.70;;;;;;;15.59;100.00;96864.08;105255;1280;139024;-71
2022/09/15 04:10:33;;;;;;;17.70;13.80;;;;;;;15.58;100.00;96860.52;106125;1280;25619;-71
2022/09/15 04:13:00;;;;;;;18.20;13.70;;;;;;;15.59;100.00;96856.15;105609;1280;25396;-71
2022/09/15 04:15:27;;;;;;;19.00;14.30;;;;;;;15.59;100.00;96859.39;105855;1279;138837;-70
2022/09/15 04:17:54;;;;;;;16.70;13.00;;;;;;;15.59;100.00;96859.56;105514;1280;22540;-71
2022/09/15 04:20:21;;;;;;;18.70;13.50;;;;;;;15.60;100.00;96864.98;106460;1280;138897;-71
2022/09/15 04:22:49;;;;;;;16.90;13.50;;;;;;;15.59;100.00;96862.30;105667;1280;24377;-71
2022/09/15 04:25:16;;;;;;;17.50;13.60;;;;;;;15.58;100.00;96861.55;106199;1280;139477;-71
2022/09/15 04:27:42;;;;;;;17.90;13.10;;;;;;;15.58;100.00;96861.06;105495;1280;22559;-71
2022/09/15 04:30:10;;;;;;;18.40;13.30;;;;;;;15.58;100.00;96859.74;105621;1280;22534;-71
2022/09/15 04:32:36;;;;;;;18.60;14.30;;;;;;;15.59;100.00;96857.53;106220;1280;139431;-71
2022/09/15 04:35:04;;;;;;;16.90;13.10;;;;;;;15.60;100.00;96856.69;105951;1280;24522;-71
2022/09/15 04:37:32;;;;;;;18.00;13.10;;;;;;;15.61;100.00;96850.95;105736;1280;139325;-71
2022/09/15 04:40:00;;;;;;;18.40;13.90;;;;;;;15.61;100.00;96849.36;106035;1280;25192;-71
2022/09/15 04:42:27;;;;;;;17.90;14.20;;;;;;;15.62;100.00;96850.66;105691;1280;25377;-71
2022/09/15 04:44:53;;;;;;;19.80;14.20;;;;;;;15.61;100.00;96852.38;105788;1280;138875;-71
2022/09/15 04:47:20;;;;;;;19.50;13.80;;;;;;;15.61;100.00;96852.38;106074;1280;22557;-71
2022/09/15 04:49:47;;;;;;;18.00;12.90;;;;;;;15.61;100.00;96851.89;105657;1280;139341;-71
2022/09/15 04:52:14;;;;;;;18.40;13.30;;;;;;;15.61;100.00;96848.10;105842;1280;24448;-71
2022/09/15 04:54:41;;;;;;;18.20;14.10;;;;;;;15.61;100.00;96849.30;105950;1280;23511;-71
2022/09/15 04:57:08;;;;;;;18.00;13.20;;;;;;;15.61;100.00;96842.71;105986;1280;139216;-71
2022/09/15 04:59:35;;;;;;;19.30;13.30;;;;;;;15.63;100.00;96846.27;105532;1280;22641;-70
2022/09/15 05:02:02;;;;;;;15.20;13.40;;;;;;;15.65;100.00;96845.83;105427;1280;139281;-71
2022/09/15 05:04:29;;;;;;;16.80;13.10;;;;;;;15.68;100.00;96850.97;105806;1280;22634;-71
2022/09/15 05:06:56;;;;;;;18.30;13.30;;;;;;;15.71;100.00;96849.13;105557;1280;22642;-71
2022/09/15 05:09:25;;;;;;;20.20;14.40;;;;;;;15.73;100.00;96850.10;105409;1280;139886;-71
2022/09/15 05:11:52;;;;;;;18.90;13.30;;;;;;;15.76;100.00;96852.41;105541;1280;24359;-71
2022/09/15 05:14:18;;;;;;;20.40;13.60;;;;;;;15.78;100.00;96851.09;105280;1280;138904;-71
2022/09/15 05:16:45;;;;;;;18.10;13.30;;;;;;;15.81;100.00;96846.98;105362;1280;22611;-71
2022/09/15 05:19:13;;;;;;;17.70;13.10;;;;;;;15.83;100.00;96846.40;105294;1280;139035;-71
2022/09/15 05:21:39;;;;;;;18.70;13.90;;;;;;;15.86;100.00;96845.60;105371;1280;22564;-71
2022/09/15 05:24:07;;;;;;;17.50;13.30;;;;;;;15.90;100.00;96846.46;105487;1280;25373;-71
2022/09/15 05:26:34;;;;;;;16.90;13.60;;;;;;;15.92;100.00;96847.84;105377;1280;139451;-71
2022/09/15 05:29:01;;;;;;;16.90;13.60;;;;;;;15.95;100.00;96846.86;105412;1280;22552;-71
2022/09/15 05:31:30;;;;;;;18.30;13.60;;;;;;;15.98;100.00;96847.08;105282;1280;139164;-71
2022/09/15 05:33:59;;;;;;;;;;;;;;;16.02;100.00;96845.73;105418;1280;22620;-71
2022/09/15 05:36:25;;;;;;;25.20;14.40;;;;;;;16.06;100.00;96840.50;105385;1280;25512;-71
2022/09/15 05:38:55;;;;;;;30.90;16.00;;;;;;;16.11;100.00;96847.17;105266;1280;138862;-71
2022/09/15 05:41:23;;;;;;;27.90;15.80;;;;;;;16.13;100.00;96849.46;105404;1280;24326;-71
2022/09/15 05:43:52;;;;;;;25.50;14.30;;;;;;;16.17;100.00;96849.23;105325;1280;139094;-71
2022/09/15 05:46:19;;;;;;;23.40;15.70;;;;;;;16.22;100.00;96848.98;105493;1280;22629;-71
2022/09/15 05:48:46;;;;;;;21.50;12.90;;;;;;;16.26;100.00;96849.58;105386;1280;25496;-71
2022/09/15 05:51:13;;;;;;;16.40;12.80;;;;;;;16.31;100.00;96852.62;105272;1280;138991;-71
2022/09/15 05:53:40;;;;;;;19.40;12.60;;;;;;;16.35;100.00;96851.23;105335;1281;24453;-71
2022/09/15 05:56:12;;;;;;;18.20;12.80;;;;;;;16.40;100.00;96849.35;105257;1281;139462;-71
2022/09/15 05:58:41;;;;;;;22.90;11.70;;;;;;;16.46;100.00;96850.81;105332;1280;23006;-71
2022/09/15 06:01:17;;;;;;;21.30;12.50;;;;;;;16.54;100.00;96854.21;105477;1280;24431;-71
2022/09/15 06:03:46;;;;;;;19.20;11.00;;;;;;;16.60;100.00;96848.20;105637;1280;22828;-71
2022/09/15 06:06:14;;;;;;;23.00;11.00;;;;;;;16.63;100.00;96848.58;105420;1280;25235;-71
2022/09/15 06:08:44;;;;;;;21.70;10.90;;;;;;;16.67;100.00;96851.20;105412;1280;139437;-71
2022/09/15 06:11:14;;;;;;;17.20;10.00;;;;;;;16.70;100.00;96852.04;106003;1280;23938;-72
2022/09/15 06:13:42;;;;;;;29.30;11.70;;;;;;;16.73;100.00;96848.47;105794;1280;139381;-71
2022/09/15 06:16:12;;;;;;;20.70;10.20;;;;;;;16.77;100.00;96847.30;105916;1280;22770;-72
2022/09/15 06:18:40;;;;;;;23.20;9.70;;;;;;;16.79;100.00;96846.46;105571;1280;24320;-71
2022/09/15 06:21:10;;;;;;;25.70;10.00;;;;;;;16.83;100.00;96849.10;106007;1280;139716;-73
2022/09/15 06:23:38;;;;;;;19.20;10.50;;;;;;;16.87;100.00;96852.50;105739;1280;22556;-71
2022/09/15 06:26:06;;;;;;;13.60;8.10;;;;;;;16.90;100.00;96857.02;105447;1280;138970;-72
2022/09/15 06:28:33;;;;;;;11.20;6.80;;;;;;;16.94;99.93;96860.77;105397;1280;22735;-72
2022/09/15 06:31:00;;;;;;;12.20;8.20;;;;;;;16.98;99.57;96861.94;105603;1280;25500;-72
2022/09/15 06:33:27;;;;;;;16.70;7.70;;;;;;;17.02;99.68;96864.71;105262;1280;138935;-72
2022/09/15 06:35:59;;;;;;;13.30;7.70;;;;;;;17.05;99.65;96862.79;105401;1280;22549;-72
2022/09/15 06:38:27;;;;;;;9.20;6.30;;;;;;;17.08;99.75;96863.64;105291;1280;138683;-72
2022/09/15 06:40:57;;;;;;;8.40;7.00;;;;;;;17.11;99.47;96865.21;105354;1281;25377;-72
2022/09/15 06:43:24;;;;;;;10.20;5.70;;;;;;;17.12;99.64;96870.44;105276;1280;138876;-72
2022/09/15 06:45:51;;;;;;;7.80;5.40;;;;;;;17.12;99.39;96870.92;105348;1280;22566;-70
2022/09/15 06:48:18;;;;;;;6.70;5.10;;;;;;;17.12;99.40;96875.88;105607;1280;25416;-72
2022/09/15 06:50:53;;;;;;;7.60;4.30;;;;;;;17.12;99.14;96876.37;105448;1280;139059;-72
2022/09/15 06:53:20;;;;;;;7.10;4.70;;;;;;;17.13;99.12;96879.77;105518;1280;22700;-72
2022/09/15 06:55:47;;;;;;;5.00;4.40;;;;;;;17.14;99.17;96885.40;105360;1280;139067;-72
2022/09/15 06:58:14;;;;;;;5.20;4.10;;;;;;;17.15;98.98;96885.13;105401;1280;23966;-71
2022/09/15 07:00:42;;;;;;;4.60;3.60;;;;;;;17.17;98.92;96890.24;105436;1280;25392;-72
2022/09/15 07:03:08;;;;;;;4.00;3.60;;;;;;;17.18;98.85;96891.57;105286;1280;138662;-72
2022/09/15 07:05:35;;;;;;;4.60;3.60;;;;;;;17.20;98.77;96894.31;105526;1280;24240;-72
2022/09/15 07:08:02;;;;;;;5.80;3.10;;;;;;;17.19;98.50;96898.46;105357;1280;138635;-72
2022/09/15 07:10:29;;;;;;;5.20;3.40;;;;;;;17.17;98.29;96903.45;105609;1280;22560;-71
2022/09/15 07:12:57;;;;;;;4.20;3.00;;;;;;;17.15;98.10;96912.94;105469;1280;22767;-72
2022/09/15 07:15:26;;;;;;;4.60;3.10;;;;;;;17.12;98.07;96920.67;105437;1280;138635;-71
2022/09/15 07:17:53;;;;;;;3.30;2.50;;;;;;;17.08;98.13;96930.58;105500;1280;22551;-72
2022/09/15 07:20:20;;;;;;;1.20;0.80;;;;;;;16.99;96.17;96936.54;105975;1280;140198;-72
2022/09/15 07:22:47;;;;;;;1.30;0.50;;;;;;;16.75;93.51;96962.52;105549;1280;25362;-71
2022/09/15 07:25:15;;;;;;;1.30;0.30;;;;;;;16.45;93.56;96968.05;106217;1280;138640;-71
2022/09/15 07:27:42;;;;;;;0.70;0.20;;;;;;;16.25;93.82;96970.84;106224;1280;23973;-71
2022/09/15 07:30:10;;;;;;;0.30;0.20;;;;;;;16.09;94.35;96960.85;106148;1280;22585;-71
2022/09/15 07:32:37;;;;;;;0.50;0.10;;;;;;;15.97;94.42;96970.60;105857;1280;139018;-70
2022/09/15 07:35:05;;;;;;;0.50;0.30;;;;;;;15.80;94.14;96993.76;106325;1280;22771;-70
2022/09/15 07:37:32;;;;;;;0.90;0.20;;;;;;;15.66;94.76;96987.95;105771;1280;138729;-70
2022/09/15 07:39:59;;;;;;;0.50;0.50;;;;;;;15.56;95.04;97000.30;105356;1280;22703;-70
2022/09/15 07:42:26;;;;;;;0.40;0.40;;;;;;;15.45;94.96;97008.41;105625;1281;22559;-69
2022/09/15 07:44:53;;;;;;;3.00;0.60;;;;;;;15.38;95.74;97015.02;105309;1280;138761;-70
2022/09/15 07:47:20;;;;;;;3.10;0.80;;;;;;;15.33;96.09;97023.45;105404;1280;25383;-70
2022/09/15 07:49:49;;;;;;;1.00;0.70;;;;;;;15.32;96.71;97024.10;105309;1280;138726;-69
2022/09/15 07:52:16;;;;;;;;;;;;;;;15.29;96.71;97029.42;105401;1280;24355;-70
2022/09/15 07:54:43;;;;;;;0.60;0.60;;;;;;;15.22;97.06;97039.52;105379;1280;24261;-71
2022/09/15 07:57:10;;;;;;;1.60;0.80;;;;;;;15.15;97.00;97049.56;105283;1280;138790;-71
2022/09/15 07:59:37;;;;;;;1.80;1.00;;;;;;;15.11;97.42;97063.45;105674;1280;24271;-71
2022/09/15 08:02:03;;;;;;;0.80;0.80;;;;;;;15.11;98.06;97065.25;105731;1280;138697;-71
2022/09/15 08:04:30;;;;;;;0.60;0.60;;;;;;;15.13;98.10;97066.50;105428;1278;22637;-71
2022/09/15 08:06:57;;;;;;;1.20;0.90;;;;;;;15.16;98.40;97072.08;105880;1280;22552;-70
2022/09/15 08:09:24;;;;;;;1.20;0.80;;;;;;;15.20;98.45;97073.09;105957;1280;138414;-71
2022/09/15 08:11:51;;;;;;;1.00;0.80;;;;;;;15.23;98.44;97075.30;106357;1280;22706;-71
2022/09/15 08:14:18;;;;;;;0.80;0.80;;;;;;;15.28;98.63;97073.83;106091;1280;139179;-72
2022/09/15 08:16:45;;;;;;;0.80;0.80;;;;;;;15.35;98.68;97079.14;105717;1281;23199;-72
2022/09/15 08:19:12;;;;;;;1.70;1.10;;;;;;;15.42;98.69;97091.16;105450;1280;139315;-72
2022/09/15 08:21:39;;;;;;;2.20;1.20;;;;;;;15.47;98.59;97098.66;105514;1280;22538;-71
2022/09/15 08:24:08;;;;;;;1.50;1.10;;;;;;;15.52;98.33;97100.59;105856;1280;22594;-72
2022/09/15 08:26:37;;;;;;;2.00;1.50;;;;;;;15.58;98.64;97099.95;105816;1280;138430;-71
2022/09/15 08:29:04;;;;;;;2.70;1.40;;;;;;;15.65;98.80;97100.12;105608;1280;22559;-71
2022/09/15 08:31:31;;;;;;;2.90;1.80;;;;;;;15.74;98.98;97104.04;106034;1280;139762;-71
2022/09/15 08:34:02;;;;;;;1.40;1.30;;;;;;;15.85;98.98;97108.73;106392;1280;26510;-71
2022/09/15 08:36:30;;;;;;;1.60;1.30;;;;;;;15.93;98.23;97124.34;106396;1280;25244;-72
2022/09/15 08:38:57;;;;;;;2.40;1.20;;;;;;;15.98;97.49;97135.14;106368;1280;138422;-71
2022/09/15 08:41:30;;;;;;;1.40;1.30;;;;;;;16.01;97.24;97140.82;106079;1280;23080;-71
2022/09/15 08:44:07;;;;;;;1.70;1.20;;;;;;;16.08;97.03;97132.17;106097;1280;139244;-72
2022/09/15 08:46:41;;;;;;;1.20;1.10;;;;;;;16.16;96.45;97126.52;106560;1280;22563;-71
2022/09/15 08:49:18;;;;;;;3.90;1.70;;;;;;;16.24;96.27;97127.78;106021;1280;22566;-71
2022/09/15 08:51:47;;;;;;;1.30;1.10;;;;;;;16.34;96.31;97137.68;106178;1280;23335;-71
2022/09/15 08:54:27;;;;;;;2.00;0.90;;;;;;;16.45;96.07;97142.89;105638;1280;24438;-72
2022/09/15 08:56:56;;;;;;;1.20;1.10;;;;;;;16.56;95.65;97139.58;105633;1280;139053;-72
2022/09/15 08:59:31;;;;;;;1.30;1.20;;;;;;;16.65;94.85;97140.65;106382;1280;24437;-72
2022/09/15 09:02:28;;;;;;;2.00;1.20;;;;;;;16.69;93.90;97143.82;105459;1280;138510;-72
2022/09/15 09:05:18;;;;;;;1.30;1.20;;;;;;;16.67;92.15;97146.80;105824;1280;24948;-72
2022/09/15 09:08:01;;;;;;;1.80;1.50;;;;;;;16.72;93.15;97146.02;105746;1280;139134;-72
2022/09/15 09:10:51;;;;;;;1.50;1.40;;;;;;;16.77;93.21;97152.31;106228;1280;22705;-72
2022/09/15 09:13:42;;;;;;;2.20;1.20;;;;;;;16.85;92.88;97157.92;105793;1280;138757;-72
2022/09/15 09:16:19;;;;;;;1.40;1.30;;;;;;;16.87;91.90;97168.94;105741;1280;22704;-72
2022/09/15 09:19:14;;;;;;;1.40;1.30;;;;;;;16.86;91.29;97175.95;105436;1281;22560;-72
2022/09/15 09:21:47;;;;;;;1.70;1.50;;;;;;;16.80;90.81;97179.27;105550;1280;23092;-72
2022/09/15 09:24:27;;;;;;;2.00;1.40;;;;;;;16.80;91.57;97181.86;106009;1280;24225;-73
2022/09/15 09:26:55;;;;;;;1.40;1.30;;;;;;;16.87;91.64;97190.45;106176;1280;138634;-73
2022/09/15 09:29:32;;;;;;;2.50;1.80;;;;;;;16.91;91.53;97196.16;105994;1280;22597;-72
2022/09/15 09:32:01;;;;;;;1.50;1.40;;;;;;;16.98;91.45;97202.36;106146;1280;138519;-72
2022/09/15 09:34:42;;;;;;;3.10;1.70;;;;;;;17.01;90.80;97202.64;106201;1280;23097;-72
2022/09/15 09:37:12;;;;;;;1.40;1.30;;;;;;;17.06;90.14;97201.67;106406;1280;22550;-73
2022/09/15 09:39:40;;;;;;;1.40;1.30;;;;;;;17.10;90.02;97197.72;106390;1280;24203;-73
2022/09/15 09:42:14;;;;;;;1.50;1.40;;;;;;;17.16;88.98;97195.02;105631;1280;23269;-73
2022/09/15 09:44:41;;;;;;;2.70;1.30;;;;;;;17.27;89.03;97196.14;105373;1280;138420;-73
2022/09/15 09:47:09;;;;;;;1.50;1.40;;;;;;;17.38;88.81;97194.40;105407;1280;24222;-73
2022/09/15 09:49:46;;;;;;;1.60;1.40;;;;;;;17.54;88.51;97202.09;105636;1280;138609;-73
2022/09/15 09:52:38;;;;;;;2.20;1.30;;;;;;;17.69;89.10;97206.71;105499;1280;23008;-73
2022/09/15 09:55:25;;;;;;;1.80;1.70;;;;;;;17.75;87.45;97206.36;106137;1280;24573;-73
2022/09/15 09:58:00;;;;;;;1.70;1.40;;;;;;;17.78;87.28;97200.27;105516;1281;23944;-74
2022/09/15 10:00:36;;;;;;;2.20;1.40;;;;;;;17.76;87.23;97207.75;105422;1280;25450;-73
2022/09/15 10:03:22;;;;;;;1.50;1.40;;;;;;;17.72;87.06;97204.58;105371;1280;138373;-73
2022/09/15 10:06:11;;;;;;;1.90;1.50;;;;;;;17.64;86.66;97203.24;105401;1280;25258;-73
2022/09/15 10:09:02;;;;;;;1.60;1.50;;;;;;;17.56;87.02;97204.47;105557;1280;138365;-73
2022/09/15 10:11:57;;;;;;;2.00;1.70;;;;;;;17.51;87.45;97204.04;105429;1280;22547;-73
2022/09/15 10:14:40;;;;;;;3.10;2.30;;;;;;;17.50;88.18;97205.81;105212;1279;138574;-73
2022/09/15 10:17:14;;;;;;;1.50;1.40;;;;;;;17.47;88.16;97210.30;105328;1281;22573;-73
2022/09/15 10:19:46;;;;;;;1.90;1.60;;;;;;;17.44;88.34;97214.45;105267;1281;138706;-73
2022/09/15 10:22:27;;;;;;;1.50;1.40;;;;;;;17.39;88.21;97216.09;105439;1280;24426;-76
2022/09/15 10:24:55;;;;;;;1.70;1.60;;;;;;;17.32;87.84;97217.41;105442;1281;24265;-71
2022/09/15 10:27:31;;;;;;;3.00;1.90;;;;;;;17.24;88.04;97216.89;105301;1280;138323;-70
2022/09/15 10:30:17;;;;;;;2.20;1.70;;;;;;;17.20;88.12;97219.94;105884;1280;24655;-70
2022/09/15 10:32:44;;;;;;;1.90;1.70;;;;;;;17.13;88.11;97217.56;105995;1281;138571;-72
2022/09/15 10:35:19;;;;;;;2.80;1.90;;;;;;;17.08;88.32;97216.63;105650;1280;24246;-70
2022/09/15 10:38:18;;;;;;;2.60;1.70;;;;;;;17.06;88.55;97217.41;105397;1280;138506;-71
2022/09/15 10:41:08;;;;;;;2.20;2.00;;;;;;;17.08;88.88;97214.67;105718;1280;24383;-71
2022/09/15 10:44:00;;;;;;;3.80;2.30;;;;;;;17.12;89.11;97212.48;105953;1280;138585;-71
2022/09/15 10:46:52;;;;;;;3.40;2.10;;;;;;;17.15;89.21;97215.41;105797;1280;23332;-70
2022/09/15 10:49:40;;;;;;;2.50;2.20;;;;;;;17.18;89.28;97212.95;105545;1281;138900;-70
2022/09/15 10:52:26;;;;;;;9.70;3.20;;;;;;;17.23;89.89;97220.24;105410;1280;24419;-71
2022/09/15 10:55:02;;;;;;;2.70;2.50;;;;;;;17.24;89.75;97213.23;105852;1280;22560;-70
2022/09/15 10:57:40;;;;;;;2.70;2.20;;;;;;;17.23;90.06;97213.65;105214;1281;138122;-70
2022/09/15 11:00:32;;;;;;;3.50;2.70;;;;;;;17.19;89.84;97214.14;105354;1281;30299;-70
2022/09/15 11:03:23;;;;;;;3.90;3.30;;;;;;;17.11;89.91;97207.83;105840;1281;138928;-69
2022/09/15 11:06:08;;;;;;;4.50;3.50;;;;;;;17.07;90.06;97202.70;105925;1280;23086;-70
2022/09/15 11:08:47;;;;;;;4.40;3.50;;;;;;;17.10;90.61;97200.76;106321;1280;138318;-70
2022/09/15 11:11:26;;;;;;;4.60;3.50;;;;;;;17.15;90.79;97201.80;106243;1280;22554;-70
2022/09/15 11:14:20;;;;;;;4.00;3.60;;;;;;;17.22;90.87;97193.51;106103;1280;138537;-70
2022/09/15 11:17:25;;;;;;;4.30;3.90;;;;;;;17.37;91.61;97196.81;105455;1288;22753;-69
2022/09/15 11:20:09;;;;;;;4.30;3.90;;;;;;;17.57;91.53;97195.37;104459;1293;138729;-70
2022/09/15 11:23:06;;;;;;;5.60;3.80;;;;;;;17.72;90.99;97192.53;104534;1292;22838;-70
2022/09/15 11:25:47;;;;;;;4.60;4.20;;;;;;;17.87;91.04;97188.34;104037;1294;138900;-70
2022/09/15 11:28:22;;;;;;;5.60;3.90;;;;;;;18.01;91.05;97182.29;104260;1293;25305;-70
2022/09/15 11:31:01;;;;;;;4.90;3.50;;;;;;;18.12;90.51;97179.52;104295;1294;29300;-70
2022/09/15 11:33:46;;;;;;;4.00;3.30;;;;;;;18.20;89.94;97177.33;103985;1294;138394;-70
2022/09/15 11:36:16;;;;;;;4.00;3.70;;;;;;;18.28;89.26;97174.90;104121;1294;22596;-70